WetterOnline ( http://www.wetteronline.de )

Wetter aktuell Köwerich

Aktuelles Wetter: Trier/Petrisberg (273m)

6-stündlich | Neueste Meldungen
Ortszeit Temperatur Wetter
Mo, 25.03. 7:00 1.1° C bewölkt
Mo, 25.03. 1:00 4.4° C wolkenlos
So, 24.03. 19:00 9.6° C wolkenlos
So, 24.03. 13:00 12.6° C wolkig
So, 24.03. 7:00 3.5° C bedeckt
So, 24.03. 1:00 5.1° C wolkenlos
Sa, 23.03. 19:00 9.3° C wolkig
Sa, 23.03. 13:00 14.4° C leicht bewölkt
Ortszeit Temperatur Wetter
Mo, 25.03. 11:10 8.1° C leicht bewölkt
Mo, 25.03. 11:00 7.7° C wolkig
Mo, 25.03. 10:50 7.7° C wolkig
Mo, 25.03. 10:40 8.2° C leicht bewölkt
Mo, 25.03. 10:30 7.3° C wolkenlos
Mo, 25.03. 10:20 7.3° C wolkenlos
Mo, 25.03. 10:00 6.9° C wolkenlos
Mo, 25.03. 9:30 5.3° C leicht bewölkt
Mo, 25.03. 9:00 4.6° C wolkig
Mo, 25.03. 8:30 3.3° C bewölkt
Mo, 25.03. 8:00 2.5° C bedeckt
Ortszeit Relative Feuchte Sichtweite
Mo, 25.03. 7:00 82% 50 km
Mo, 25.03. 1:00 62% 70 km
So, 24.03. 19:00 58% 35 km
So, 24.03. 13:00 58% 20 km
So, 24.03. 7:00 94% 3.6 km
So, 24.03. 1:00 83% 6 km
Sa, 23.03. 19:00 66% 10 km
Sa, 23.03. 13:00 47% 17 km
Ortszeit Relative Feuchte Sichtweite
Mo, 25.03. 11:10 49% -
Mo, 25.03. 11:00 48% 70 km
Mo, 25.03. 10:50 48% -
Mo, 25.03. 10:40 48% -
Mo, 25.03. 10:30 55% 65 km
Mo, 25.03. 10:20 55% -
Mo, 25.03. 10:00 60% 35 km
Mo, 25.03. 9:30 71% 30 km
Mo, 25.03. 9:00 70% 50 km
Mo, 25.03. 8:30 74% 50 km
Mo, 25.03. 8:00 74% 50 km
Ortszeit Niederschlagsmenge Niederschlagsart
Mo, 25.03. 7:00 0.0 l/m2 in 12 Std. -
Mo, 25.03. 1:00 0.0 l/m2 in 6 Std. -
So, 24.03. 19:00 0.0 l/m2 in 12 Std. -
So, 24.03. 13:00 0.0 l/m2 in 6 Std. -
So, 24.03. 7:00 0.0 l/m2 in 12 Std. -
So, 24.03. 1:00 0.0 l/m2 in 6 Std. -
Sa, 23.03. 19:00 0.0 l/m2 in 12 Std. -
Sa, 23.03. 13:00 0.0 l/m2 in 6 Std. -
Ortszeit Niederschlagsmenge Niederschlagsart
Mo, 25.03. 11:10 keine Meldung -
Mo, 25.03. 11:00 0.0 l/m2 in 1 Std. -
Mo, 25.03. 10:50 keine Meldung -
Mo, 25.03. 10:40 keine Meldung -
Mo, 25.03. 10:30 0.0 l/m2 in 1 Std. -
Mo, 25.03. 10:20 keine Meldung -
Mo, 25.03. 10:00 0.1 l/m2 in 1 Std. Regen
Mo, 25.03. 9:30 0.1 l/m2 in 1 Std. Schneeregen
Mo, 25.03. 9:00 0.0 l/m2 in 1 Std. -
Mo, 25.03. 8:30 0.0 l/m2 in 1 Std. -
Mo, 25.03. 8:00 0.0 l/m2 in 1 Std. -
Ortszeit Stärke Spitze Richtung
km/h Bft. km/h Grad Sektor
Mo, 25.03. 7:00 14 3 22 230° SW
Mo, 25.03. 1:00 7 2 18 310° NW
So, 24.03. 19:00 7 2 29 310° NW
So, 24.03. 13:00 13 3 28 30° NO
So, 24.03. 7:00 11 2 22 20° N
So, 24.03. 1:00 17 3 37 20° N
Sa, 23.03. 19:00 18 3 47 20° N
Sa, 23.03. 13:00 6 1 15 340° N
Ortszeit Stärke Spitze Richtung
km/h Bft. km/h Grad Sektor
Mo, 25.03. 11:10 17 3 - 300° NW
Mo, 25.03. 11:00 19 3 50 310° NW
Mo, 25.03. 10:50 19 3 - 310° NW
Mo, 25.03. 10:40 20 4 - 300° NW
Mo, 25.03. 10:30 20 4 50 290° W
Mo, 25.03. 10:20 20 4 - 290° W
Mo, 25.03. 10:00 19 3 37 300° NW
Mo, 25.03. 9:30 13 3 30 260° W
Mo, 25.03. 9:00 14 3 25 250° W
Mo, 25.03. 8:30 15 3 22 230° SW
Mo, 25.03. 8:00 13 3 20 240° SW
Ortszeit Untergrenze Bedeckung Gattung
total tief tief mittel hoch
Mo, 25.03. 7:00 1500 m 8/8 7/8 - - -
Mo, 25.03. 1:00 - 0/8 0/8 - - -
So, 24.03. 19:00 - 0/8 0/8 - - -
So, 24.03. 13:00 810 m 6/8 6/8 - - -
So, 24.03. 7:00 270 m 8/8 8/8 - - -
So, 24.03. 1:00 - 0/8 0/8 - - -
Sa, 23.03. 19:00 10500 m 8/8 0/8 - - -
Sa, 23.03. 13:00 10500 m 8/8 0/8 - - -
Ortszeit Bedeckungsgrad in Achtel und Wolkenuntergrenze
Mo, 25.03. 11:10 2(1200m) 4(1500m)
Mo, 25.03. 11:00 1(1170m) 5(1500m)
Mo, 25.03. 10:50 1(1170m) 5(1500m)
Mo, 25.03. 10:40 2(1500m)
Mo, 25.03. 10:30 keine Wolken
Mo, 25.03. 10:20 keine Wolken
Mo, 25.03. 10:00 keine Wolken
Mo, 25.03. 9:30 2(900m) 3(1320m)
Mo, 25.03. 9:00 3(1020m) 4(1410m) 6(1800m)
Mo, 25.03. 8:30 7(1110m) 7(1800m)
Mo, 25.03. 8:00 1(900m) 8(1800m)
Ortszeit Luftdruck NN (hPa) Tendenz (hPa in 3 Std.)
Mo, 25.03. 7:00 1024 - 0,8
Mo, 25.03. 1:00 1026 - 0,3
So, 24.03. 19:00 1025 - 0,1
So, 24.03. 13:00 1026 - 0,7
So, 24.03. 7:00 1028 - 0,1
So, 24.03. 1:00 1029 - 1,1
Sa, 23.03. 19:00 1029 + 1,4
Sa, 23.03. 13:00 1029 - 0,5
Ortszeit Luftdruck NN (hPa) Tendenz (hPa in 3 Std.)
Mo, 25.03. 11:10 1024 keine Meldung
Mo, 25.03. 11:00 1024 + 1,0
Mo, 25.03. 10:50 1024 keine Meldung
Mo, 25.03. 10:40 1024 keine Meldung
Mo, 25.03. 10:30 1024 + 0,9
Mo, 25.03. 10:20 1024 keine Meldung
Mo, 25.03. 10:00 1024 + 0,9
Mo, 25.03. 9:30 1024 + 0,9
Mo, 25.03. 9:00 1024 + 0,6
Mo, 25.03. 8:30 1024 + 0,3
Mo, 25.03. 8:00 1024 - 0,1
Ortszeit Schneehöhe (cm)
Mo, 25.03. 7:00 0
Mo, 25.03. 1:00 0
So, 24.03. 19:00 0
So, 24.03. 13:00 0
So, 24.03. 7:00 0
So, 24.03. 1:00 0
Sa, 23.03. 19:00 0
Sa, 23.03. 13:00 0
Ortszeit Schneehöhe (cm)
Mo, 25.03. 11:10 0
Mo, 25.03. 11:00 0
Mo, 25.03. 10:50 0
Mo, 25.03. 10:40 0
Mo, 25.03. 10:30 0
Mo, 25.03. 10:20 0
Mo, 25.03. 10:00 0
Mo, 25.03. 9:30 0
Mo, 25.03. 9:00 0
Mo, 25.03. 8:30 0
Mo, 25.03. 8:00 0
Link zu dieser Seite / Seite empfehlen

Das Wetter in ...